sensor_id;sensor_type;location;lat;lon;timestamp;P1;P2;P0
74428;PMS5003;62860;52.134;23.714;2022-12-07T00:04:17;3.6;2.6;1.6
74428;PMS5003;62860;52.134;23.714;2022-12-07T00:10:00;3.6;3.2;2.2
74428;PMS5003;62860;52.134;23.714;2022-12-07T00:15:00;2.2;2;1.2
74428;PMS5003;62860;52.134;23.714;2022-12-07T00:20:00;2.6;1.8;1.2
74428;PMS5003;62860;52.134;23.714;2022-12-07T00:24:26;1.6;1.6;1.2
74428;PMS5003;62860;52.134;23.714;2022-12-07T00:29:24;2.4;1.8;1.6
74428;PMS5003;62860;52.134;23.714;2022-12-07T00:34:32;3.2;2;1.6
74428;PMS5003;62860;52.134;23.714;2022-12-07T00:39:58;4.2;2;1.6
74428;PMS5003;62860;52.134;23.714;2022-12-07T00:44:44;4.6;2.8;2
74428;PMS5003;62860;52.134;23.714;2022-12-07T00:49:36;3.8;2;1.4
74428;PMS5003;62860;52.134;23.714;2022-12-07T00:54:22;2;1.4;0.8
74428;PMS5003;62860;52.134;23.714;2022-12-07T01:00:00;3.4;2;1.2
74428;PMS5003;62860;52.134;23.714;2022-12-07T01:04:24;3.2;2.6;1.8
74428;PMS5003;62860;52.134;23.714;2022-12-07T01:09:46;3.4;3;2.2
74428;PMS5003;62860;52.134;23.714;2022-12-07T01:14:48;5.6;2.6;2
74428;PMS5003;62860;52.134;23.714;2022-12-07T01:19:16;4.2;3;2.2
74428;PMS5003;62860;52.134;23.714;2022-12-07T01:25:02;3.6;3;2
74428;PMS5003;62860;52.134;23.714;2022-12-07T01:30:04;3.4;2.4;1.6
74428;PMS5003;62860;52.134;23.714;2022-12-07T01:35:02;3.4;2.2;1.4
74428;PMS5003;62860;52.134;23.714;2022-12-07T01:39:36;3.4;2.4;1.8
74428;PMS5003;62860;52.134;23.714;2022-12-07T01:44:28;2.8;2.2;1.4
74428;PMS5003;62860;52.134;23.714;2022-12-07T01:50:00;4.2;3.2;2.2
74428;PMS5003;62860;52.134;23.714;2022-12-07T01:55:03;4.2;3.2;2.4
74428;PMS5003;62860;52.134;23.714;2022-12-07T01:59:16;4.4;3.4;2.4
74428;PMS5003;62860;52.134;23.714;2022-12-07T02:04:54;4;2.4;1.8
74428;PMS5003;62860;52.134;23.714;2022-12-07T02:09:28;4.6;2.6;1.8
74428;PMS5003;62860;52.134;23.714;2022-12-07T02:15:02;3.4;2.6;1.4
74428;PMS5003;62860;52.134;23.714;2022-12-07T02:19:38;6.6;5.6;3.4
74428;PMS5003;62860;52.134;23.714;2022-12-07T02:24:52;3.8;3;1.5
74428;PMS5003;62860;52.134;23.714;2022-12-07T02:29:47;6.4;4.6;3.4
74428;PMS5003;62860;52.134;23.714;2022-12-07T02:34:18;3.8;3.2;2.6
74428;PMS5003;62860;52.134;23.714;2022-12-07T02:40:04;3.4;2.8;2.6
74428;PMS5003;62860;52.134;23.714;2022-12-07T02:44:58;3.8;2.8;1.8
74428;PMS5003;62860;52.134;23.714;2022-12-07T02:50:03;5.2;3.8;3.2
74428;PMS5003;62860;52.134;23.714;2022-12-07T02:54:36;6.2;4.4;2.8
74428;PMS5003;62860;52.134;23.714;2022-12-07T02:59:30;6.2;5.6;4
74428;PMS5003;62860;52.134;23.714;2022-12-07T03:04:40;5.8;4.6;3.2
74428;PMS5003;62860;52.134;23.714;2022-12-07T03:10:07;5.8;3.4;3
74428;PMS5003;62860;52.134;23.714;2022-12-07T03:14:38;5.8;4.2;3.4
74428;PMS5003;62860;52.134;23.714;2022-12-07T03:19:59;7;5;3.6
74428;PMS5003;62860;52.134;23.714;2022-12-07T03:24:26;7;5;3.2
74428;PMS5003;62860;52.134;23.714;2022-12-07T03:30:03;6;4.6;3
74428;PMS5003;62860;52.134;23.714;2022-12-07T03:34:35;7.6;5.6;4.6
74428;PMS5003;62860;52.134;23.714;2022-12-07T03:39:54;7.6;6.4;5
74428;PMS5003;62860;52.134;23.714;2022-12-07T03:44:48;12.8;7.8;6.4
74428;PMS5003;62860;52.134;23.714;2022-12-07T03:49:40;7.4;6;4.2
74428;PMS5003;62860;52.134;23.714;2022-12-07T03:55:04;10.8;7.2;4.8
74428;PMS5003;62860;52.134;23.714;2022-12-07T03:59:18;6.8;6;4.8
74428;PMS5003;62860;52.134;23.714;2022-12-07T04:04:40;10.8;8.2;6.8
74428;PMS5003;62860;52.134;23.714;2022-12-07T04:10:03;7;6.4;5
74428;PMS5003;62860;52.134;23.714;2022-12-07T04:14:16;9.2;7.8;5.4
74428;PMS5003;62860;52.134;23.714;2022-12-07T04:19:17;7.6;5.4;4.8
74428;PMS5003;62860;52.134;23.714;2022-12-07T04:24:36;8.6;7;5.6
74428;PMS5003;62860;52.134;23.714;2022-12-07T04:30:00;9.2;7.8;6.6
74428;PMS5003;62860;52.134;23.714;2022-12-07T04:35:00;11.4;7.8;6.2
74428;PMS5003;62860;52.134;23.714;2022-12-07T04:39:25;12.4;9;6
74428;PMS5003;62860;52.134;23.714;2022-12-07T04:44:16;8;6.8;5.2
74428;PMS5003;62860;52.134;23.714;2022-12-07T04:49:48;10.6;7.4;6
74428;PMS5003;62860;52.134;23.714;2022-12-07T04:54:48;10.6;8.6;7.4
74428;PMS5003;62860;52.134;23.714;2022-12-07T04:59:38;10.6;9;7
74428;PMS5003;62860;52.134;23.714;2022-12-07T05:04:16;10.8;8.4;6.4
74428;PMS5003;62860;52.134;23.714;2022-12-07T05:09:16;10.4;8.8;6.4
74428;PMS5003;62860;52.134;23.714;2022-12-07T05:14:48;16.2;11.6;7.8
74428;PMS5003;62860;52.134;23.714;2022-12-07T05:19:38;6.4;4.6;3.8
74428;PMS5003;62860;52.134;23.714;2022-12-07T05:25:00;10.8;8.2;6.6
74428;PMS5003;62860;52.134;23.714;2022-12-07T05:29:28;11.8;7.4;5.8
74428;PMS5003;62860;52.134;23.714;2022-12-07T05:34:26;10.2;8.6;6.6
74428;PMS5003;62860;52.134;23.714;2022-12-07T05:39:34;10;5.6;4.2
74428;PMS5003;62860;52.134;23.714;2022-12-07T05:45:00;6.8;6.4;4.4
74428;PMS5003;62860;52.134;23.714;2022-12-07T05:50:00;8.2;6.6;5.2
74428;PMS5003;62860;52.134;23.714;2022-12-07T05:54:16;8.8;7.4;5
74428;PMS5003;62860;52.134;23.714;2022-12-07T05:59:16;8.6;6;5.2
74428;PMS5003;62860;52.134;23.714;2022-12-07T06:04:45;10.4;7.6;5.8
74428;PMS5003;62860;52.134;23.714;2022-12-07T06:09:46;12.4;9.4;7.8
74428;PMS5003;62860;52.134;23.714;2022-12-07T06:14:22;10.6;9;6.6
74428;PMS5003;62860;52.134;23.714;2022-12-07T06:19:16;13;9.8;7.2
74428;PMS5003;62860;52.134;23.714;2022-12-07T06:24:16;10.8;8.2;6.4
74428;PMS5003;62860;52.134;23.714;2022-12-07T06:29:52;11.6;8.8;6.6
74428;PMS5003;62860;52.134;23.714;2022-12-07T06:34:38;9.8;8.4;6.2
74428;PMS5003;62860;52.134;23.714;2022-12-07T06:40:02;9.2;9;7
74428;PMS5003;62860;52.134;23.714;2022-12-07T06:44:16;12.2;10.4;7.6
74428;PMS5003;62860;52.134;23.714;2022-12-07T06:49:16;11.8;8;5.8
74428;PMS5003;62860;52.134;23.714;2022-12-07T06:54:26;10.8;9.4;7.4
74428;PMS5003;62860;52.134;23.714;2022-12-07T06:59:58;11.8;9;8.2
74428;PMS5003;62860;52.134;23.714;2022-12-07T07:05:00;11.4;8;6.2
74428;PMS5003;62860;52.134;23.714;2022-12-07T07:09:36;11;7.6;6.2
74428;PMS5003;62860;52.134;23.714;2022-12-07T07:14:16;10.4;6.6;6
74428;PMS5003;62860;52.134;23.714;2022-12-07T07:19:46;10;8.2;6.8
74428;PMS5003;62860;52.134;23.714;2022-12-07T07:24:46;11.6;9.2;6.8
74428;PMS5003;62860;52.134;23.714;2022-12-07T07:29:26;11;8.8;6.8
74428;PMS5003;62860;52.134;23.714;2022-12-07T07:34:30;9;7.6;6.4
74428;PMS5003;62860;52.134;23.714;2022-12-07T07:39:48;11.2;8.8;7.4
74428;PMS5003;62860;52.134;23.714;2022-12-07T07:44:48;8.6;7.2;4.6
74428;PMS5003;62860;52.134;23.714;2022-12-07T07:49:38;9.8;7.2;5.6
74428;PMS5003;62860;52.134;23.714;2022-12-07T07:55:00;6.6;5.2;3.8
74428;PMS5003;62860;52.134;23.714;2022-12-07T07:59:28;8.6;5.6;4.4
74428;PMS5003;62860;52.134;23.714;2022-12-07T08:04:16;5.2;5.2;4.4
74428;PMS5003;62860;52.134;23.714;2022-12-07T08:09:26;9;6.4;4.6
74428;PMS5003;62860;52.134;23.714;2022-12-07T08:14:56;7.4;6.2;4.6
74428;PMS5003;62860;52.134;23.714;2022-12-07T08:20:00;10.2;6.4;5.2
74428;PMS5003;62860;52.134;23.714;2022-12-07T08:24:38;7.4;5.4;4.6
74428;PMS5003;62860;52.134;23.714;2022-12-07T08:29:16;8.4;6.2;5
74428;PMS5003;62860;52.134;23.714;2022-12-07T08:34:36;7.6;5.8;4.6
74428;PMS5003;62860;52.134;23.714;2022-12-07T08:39:48;8;6.6;5.6
74428;PMS5003;62860;52.134;23.714;2022-12-07T08:44:38;7.4;4.8;4
74428;PMS5003;62860;52.134;23.714;2022-12-07T08:49:27;6;5.2;4.6
74428;PMS5003;62860;52.134;23.714;2022-12-07T08:54:28;6.4;5.8;4.8
74428;PMS5003;62860;52.134;23.714;2022-12-07T08:59:48;4.2;3.8;3.2
74428;PMS5003;62860;52.134;23.714;2022-12-07T09:04:38;5.2;3.6;3
74428;PMS5003;62860;52.134;23.714;2022-12-07T09:10:00;5.6;5.2;4
74428;PMS5003;62860;52.134;23.714;2022-12-07T09:14:26;5.2;4.2;3.2
74428;PMS5003;62860;52.134;23.714;2022-12-07T09:19:36;8;5;4.2
74428;PMS5003;62860;52.134;23.714;2022-12-07T09:24:24;5.4;4.2;3.4
74428;PMS5003;62860;52.134;23.714;2022-12-07T09:30:02;6.8;4.6;4
74428;PMS5003;62860;52.134;23.714;2022-12-07T09:35:00;6.2;5.6;4.4
74428;PMS5003;62860;52.134;23.714;2022-12-07T09:39:37;5.8;3.6;2.8
74428;PMS5003;62860;52.134;23.714;2022-12-07T09:44:18;8.4;4.8;4.2
74428;PMS5003;62860;52.134;23.714;2022-12-07T09:49:36;5.8;5.6;4.6
74428;PMS5003;62860;52.134;23.714;2022-12-07T09:54:49;5.2;4.6;4
74428;PMS5003;62860;52.134;23.714;2022-12-07T09:59:17;6.8;5.8;4.2
74428;PMS5003;62860;52.134;23.714;2022-12-07T10:04:38;5.6;4.6;3.4
74428;PMS5003;62860;52.134;23.714;2022-12-07T10:09:28;8.8;6;4.4
74428;PMS5003;62860;52.134;23.714;2022-12-07T10:14:54;6.6;5.2;4.2
74428;PMS5003;62860;52.134;23.714;2022-12-07T10:19:27;6.6;5.6;5
74428;PMS5003;62860;52.134;23.714;2022-12-07T10:25:08;6.2;5.8;4.2
74428;PMS5003;62860;52.134;23.714;2022-12-07T10:29:29;6.6;5;4
74428;PMS5003;62860;52.134;23.714;2022-12-07T10:34:36;8.2;5.6;4.8
74428;PMS5003;62860;52.134;23.714;2022-12-07T10:39:17;7.4;7.2;4.8
74428;PMS5003;62860;52.134;23.714;2022-12-07T10:45:06;6.4;5.8;5
74428;PMS5003;62860;52.134;23.714;2022-12-07T10:50:02;9.6;6.2;4.6
74428;PMS5003;62860;52.134;23.714;2022-12-07T10:54:17;7.6;4.8;4
74428;PMS5003;62860;52.134;23.714;2022-12-07T10:59:42;7.4;5.8;3.8
74428;PMS5003;62860;52.134;23.714;2022-12-07T11:04:53;8.2;6.6;5
74428;PMS5003;62860;52.134;23.714;2022-12-07T11:09:52;8.4;6.4;4.2
74428;PMS5003;62860;52.134;23.714;2022-12-07T11:14:38;12.2;7;5
74428;PMS5003;62860;52.134;23.714;2022-12-07T11:19:22;7.2;6.6;4.8
74428;PMS5003;62860;52.134;23.714;2022-12-07T11:24:27;6.4;5.6;4.6
74428;PMS5003;62860;52.134;23.714;2022-12-07T11:29:49;7.6;6;4.4
74428;PMS5003;62860;52.134;23.714;2022-12-07T11:34:37;5.6;4.2;3.2
74428;PMS5003;62860;52.134;23.714;2022-12-07T11:40:01;7.2;5;3.8
74428;PMS5003;62860;52.134;23.714;2022-12-07T11:44:19;7;5.6;4.2
74428;PMS5003;62860;52.134;23.714;2022-12-07T11:49:19;7.4;4.8;3.8
74428;PMS5003;62860;52.134;23.714;2022-12-07T11:54:35;7;6;4.8
74428;PMS5003;62860;52.134;23.714;2022-12-07T12:00:02;7.8;6.2;5.4
74428;PMS5003;62860;52.134;23.714;2022-12-07T12:04:58;6.8;5.6;4
74428;PMS5003;62860;52.134;23.714;2022-12-07T12:09:28;10.8;7.6;5.6
74428;PMS5003;62860;52.134;23.714;2022-12-07T12:14:30;9.8;7.6;5.8
74428;PMS5003;62860;52.134;23.714;2022-12-07T12:19:57;9.2;7.2;5.6
74428;PMS5003;62860;52.134;23.714;2022-12-07T12:24:44;8.8;6.6;4.6
74428;PMS5003;62860;52.134;23.714;2022-12-07T12:29:19;6.8;6.6;4.4
74428;PMS5003;62860;52.134;23.714;2022-12-07T12:34:29;9.4;6.4;4.8
74428;PMS5003;62860;52.134;23.714;2022-12-07T12:39:17;7.8;5.2;4
74428;PMS5003;62860;52.134;23.714;2022-12-07T12:45:53;7.6;5.6;4.2
74428;PMS5003;62860;52.134;23.714;2022-12-07T12:50:23;4.6;4;2.6
74428;PMS5003;62860;52.134;23.714;2022-12-07T12:55:11;5;2.6;2.6
74428;PMS5003;62860;52.134;23.714;2022-12-07T12:59:25;5.4;3;2.2
74428;PMS5003;62860;52.134;23.714;2022-12-07T13:04:25;5.8;3.8;3.5
74428;PMS5003;62860;52.134;23.714;2022-12-07T13:09:36;7;3.8;2.6
74428;PMS5003;62860;52.134;23.714;2022-12-07T13:14:52;4.8;3.8;3.4
74428;PMS5003;62860;52.134;23.714;2022-12-07T13:19:59;6.2;3.8;3.4
74428;PMS5003;62860;52.134;23.714;2022-12-07T13:25:03;8;5.4;4.4
74428;PMS5003;62860;52.134;23.714;2022-12-07T13:29:17;6.6;5.6;4
74428;PMS5003;62860;52.134;23.714;2022-12-07T13:34:48;5;2.6;2.6
74428;PMS5003;62860;52.134;23.714;2022-12-07T13:39:44;6;4.4;2.8
74428;PMS5003;62860;52.134;23.714;2022-12-07T13:44:33;6.6;5.4;3.8
74428;PMS5003;62860;52.134;23.714;2022-12-07T13:50:21;6.4;5.6;4
74428;PMS5003;62860;52.134;23.714;2022-12-07T13:54:17;6.2;5;4.4
74428;PMS5003;62860;52.134;23.714;2022-12-07T14:00:02;8;6.2;4.2
74428;PMS5003;62860;52.134;23.714;2022-12-07T14:04:37;9;7.6;5.8
74428;PMS5003;62860;52.134;23.714;2022-12-07T14:09:59;10;7.8;5.8
74428;PMS5003;62860;52.134;23.714;2022-12-07T14:14:36;10;7.2;5
74428;PMS5003;62860;52.134;23.714;2022-12-07T14:20:03;7.8;5;4
74428;PMS5003;62860;52.134;23.714;2022-12-07T14:24:41;8.8;6.2;5
74428;PMS5003;62860;52.134;23.714;2022-12-07T14:29:51;8.6;7;5.6
74428;PMS5003;62860;52.134;23.714;2022-12-07T14:35:00;7.2;6.6;4.8
74428;PMS5003;62860;52.134;23.714;2022-12-07T14:39:50;6.8;5;4.2
74428;PMS5003;62860;52.134;23.714;2022-12-07T14:44:26;6.6;5.8;5
74428;PMS5003;62860;52.134;23.714;2022-12-07T14:49:49;6.4;5.6;4.4
74428;PMS5003;62860;52.134;23.714;2022-12-07T14:54:46;6.4;5.8;4
74428;PMS5003;62860;52.134;23.714;2022-12-07T14:59:38;8.8;6.4;4.8
74428;PMS5003;62860;52.134;23.714;2022-12-07T15:05:03;8.2;4.8;4
74428;PMS5003;62860;52.134;23.714;2022-12-07T15:09:16;9;7.4;6.2
74428;PMS5003;62860;52.134;23.714;2022-12-07T15:15:00;7.8;6;5.4
74428;PMS5003;62860;52.134;23.714;2022-12-07T15:19:38;7.4;5.6;4.8
74428;PMS5003;62860;52.134;23.714;2022-12-07T15:24:50;8.8;6.2;5
74428;PMS5003;62860;52.134;23.714;2022-12-07T15:29:40;10.2;6;5
74428;PMS5003;62860;52.134;23.714;2022-12-07T15:34:29;10.8;8.6;6.2
74428;PMS5003;62860;52.134;23.714;2022-12-07T15:39:26;11.4;8.8;6.2
74428;PMS5003;62860;52.134;23.714;2022-12-07T15:44:51;7.4;4.6;4.2
74428;PMS5003;62860;52.134;23.714;2022-12-07T15:50:03;5.8;5;4
74428;PMS5003;62860;52.134;23.714;2022-12-07T15:55:03;7.2;5.8;4.8
74428;PMS5003;62860;52.134;23.714;2022-12-07T15:59:17;7.2;5.6;4.8
74428;PMS5003;62860;52.134;23.714;2022-12-07T16:04:39;7.4;6.6;4
74428;PMS5003;62860;52.134;23.714;2022-12-07T16:09:49;10;7.4;6.4
74428;PMS5003;62860;52.134;23.714;2022-12-07T16:14:37;10.8;9.6;7
74428;PMS5003;62860;52.134;23.714;2022-12-07T16:20:01;11.2;8.4;6.8
74428;PMS5003;62860;52.134;23.714;2022-12-07T16:24:29;11.6;6.8;5.6
74428;PMS5003;62860;52.134;23.714;2022-12-07T16:30:03;9.4;7.6;6
74428;PMS5003;62860;52.134;23.714;2022-12-07T16:34:17;7;5.8;4.6
74428;PMS5003;62860;52.134;23.714;2022-12-07T16:39:51;7.6;6;4.2
74428;PMS5003;62860;52.134;23.714;2022-12-07T16:44:37;9.4;4.8;4
74428;PMS5003;62860;52.134;23.714;2022-12-07T16:49:27;7.8;5;3.8
74428;PMS5003;62860;52.134;23.714;2022-12-07T16:54:37;9.4;7.2;6.2
74428;PMS5003;62860;52.134;23.714;2022-12-07T16:59:53;8.6;7;5.8
74428;PMS5003;62860;52.134;23.714;2022-12-07T17:04:59;9.8;7.4;5
74428;PMS5003;62860;52.134;23.714;2022-12-07T17:09:59;8.6;6;4.8
74428;PMS5003;62860;52.134;23.714;2022-12-07T17:14:25;8;5.4;4.2
74428;PMS5003;62860;52.134;23.714;2022-12-07T17:19:29;10.4;6.8;5.8
74428;PMS5003;62860;52.134;23.714;2022-12-07T17:24:47;7.4;5.8;4.8
74428;PMS5003;62860;52.134;23.714;2022-12-07T17:29:39;10.4;6.6;4.8
74428;PMS5003;62860;52.134;23.714;2022-12-07T17:34:47;9;6.8;5.4
74428;PMS5003;62860;52.134;23.714;2022-12-07T17:39:29;7.2;6.2;4.6
74428;PMS5003;62860;52.134;23.714;2022-12-07T17:45:01;7.6;5.8;4.2
74428;PMS5003;62860;52.134;23.714;2022-12-07T17:49:17;8;4.8;3.4
74428;PMS5003;62860;52.134;23.714;2022-12-07T17:54:49;9.8;6.2;4.6
74428;PMS5003;62860;52.134;23.714;2022-12-07T17:59:37;9.6;6.4;5.4
74428;PMS5003;62860;52.134;23.714;2022-12-07T18:04:39;10;7;5
74428;PMS5003;62860;52.134;23.714;2022-12-07T18:09:49;7.4;5.8;3.6
74428;PMS5003;62860;52.134;23.714;2022-12-07T18:14:49;7.4;5.2;4.8
74428;PMS5003;62860;52.134;23.714;2022-12-07T18:19:37;8.8;7.3;5.8
74428;PMS5003;62860;52.134;23.714;2022-12-07T18:25:01;9.8;6.2;5
74428;PMS5003;62860;52.134;23.714;2022-12-07T18:29:17;9.2;7;5.6
74428;PMS5003;62860;52.134;23.714;2022-12-07T18:35:01;9.2;7.2;5.6
74428;PMS5003;62860;52.134;23.714;2022-12-07T18:39:41;8.2;6.6;5.4
74428;PMS5003;62860;52.134;23.714;2022-12-07T18:44:39;8.2;6;5
74428;PMS5003;62860;52.134;23.714;2022-12-07T18:49:59;8.6;6.8;5.4
74428;PMS5003;62860;52.134;23.714;2022-12-07T18:54:17;9.8;6.8;5
74428;PMS5003;62860;52.134;23.714;2022-12-07T19:00:01;12;7.2;6.2
74428;PMS5003;62860;52.134;23.714;2022-12-07T19:04:39;8.8;6.4;5.2
74428;PMS5003;62860;52.134;23.714;2022-12-07T19:09:49;8.8;7.6;6.2
74428;PMS5003;62860;52.134;23.714;2022-12-07T19:14:18;10.4;7;4.2
74428;PMS5003;62860;52.134;23.714;2022-12-07T19:19:17;9.6;7.2;5.8
74428;PMS5003;62860;52.134;23.714;2022-12-07T19:24:17;15;9.2;8.2
74428;PMS5003;62860;52.134;23.714;2022-12-07T19:29:53;14.8;9.8;7.8
74428;PMS5003;62860;52.134;23.714;2022-12-07T19:34:39;11;9.2;7
74428;PMS5003;62860;52.134;23.714;2022-12-07T19:40:01;13.8;9.2;7.6
74428;PMS5003;62860;52.134;23.714;2022-12-07T19:44:29;12.4;9.4;7.2
74428;PMS5003;62860;52.134;23.714;2022-12-07T19:50:01;13.2;9;6.8
74428;PMS5003;62860;52.134;23.714;2022-12-07T19:54:47;8.8;8;6
74428;PMS5003;62860;52.134;23.714;2022-12-07T19:59:51;10;9;6.6
74428;PMS5003;62860;52.134;23.714;2022-12-07T20:04:49;11.6;9.2;6.8
74428;PMS5003;62860;52.134;23.714;2022-12-07T20:09:29;11.2;8.4;6.4
74428;PMS5003;62860;52.134;23.714;2022-12-07T20:15:01;10.4;8;6.2
74428;PMS5003;62860;52.134;23.714;2022-12-07T20:19:37;11.8;9.2;7.2
74428;PMS5003;62860;52.134;23.714;2022-12-07T20:25:01;10.6;8.4;6.8
74428;PMS5003;62860;52.134;23.714;2022-12-07T20:29:37;10.4;7.6;5.8
74428;PMS5003;62860;52.134;23.714;2022-12-07T20:34:17;8.6;7.8;6.4
74428;PMS5003;62860;52.134;23.714;2022-12-07T20:39:17;9.8;7.4;6.6
74428;PMS5003;62860;52.134;23.714;2022-12-07T20:44:51;7;7;4.6
74428;PMS5003;62860;52.134;23.714;2022-12-07T20:49:37;11.2;7.8;6.4
74428;PMS5003;62860;52.134;23.714;2022-12-07T20:54:59;8.2;6.4;5.6
74428;PMS5003;62860;52.134;23.714;2022-12-07T20:59:27;8.4;7.4;6.4
74428;PMS5003;62860;52.134;23.714;2022-12-07T21:04:49;11.4;8.2;6.8
74428;PMS5003;62860;52.134;23.714;2022-12-07T21:09:41;7.4;6.2;5.6
74428;PMS5003;62860;52.134;23.714;2022-12-07T21:14:53;10;7.4;6.2
74428;PMS5003;62860;52.134;23.714;2022-12-07T21:19:51;11.8;7.8;5.6
74428;PMS5003;62860;52.134;23.714;2022-12-07T21:24:41;11.4;8.4;5.8
74428;PMS5003;62860;52.134;23.714;2022-12-07T21:30:03;10.2;8.2;6.8
74428;PMS5003;62860;52.134;23.714;2022-12-07T21:34:37;10.2;8.6;6.4
74428;PMS5003;62860;52.134;23.714;2022-12-07T21:39:49;9.6;7.8;6.6
74428;PMS5003;62860;52.134;23.714;2022-12-07T21:44:35;11.2;9.4;7.6
74428;PMS5003;62860;52.134;23.714;2022-12-07T21:49:25;10;8.4;6.4
74428;PMS5003;62860;52.134;23.714;2022-12-07T21:54:47;13.2;8.2;5.6
74428;PMS5003;62860;52.134;23.714;2022-12-07T21:59:59;9.8;7;5.8
74428;PMS5003;62860;52.134;23.714;2022-12-07T22:04:27;8.4;7.4;5.8
74428;PMS5003;62860;52.134;23.714;2022-12-07T22:09:47;12;8;6.4
74428;PMS5003;62860;52.134;23.714;2022-12-07T22:14:17;11.8;8.2;5.8
74428;PMS5003;62860;52.134;23.714;2022-12-07T22:19:57;10.8;7.8;6.6
74428;PMS5003;62860;52.134;23.714;2022-12-07T22:24:33;9.8;7.8;6
74428;PMS5003;62860;52.134;23.714;2022-12-07T22:29:47;11.6;8.2;5.2
74428;PMS5003;62860;52.134;23.714;2022-12-07T22:34:45;9.4;7.4;5.4
74428;PMS5003;62860;52.134;23.714;2022-12-07T22:39:25;7;5.4;5
74428;PMS5003;62860;52.134;23.714;2022-12-07T22:44:57;9;6.8;5.6
74428;PMS5003;62860;52.134;23.714;2022-12-07T22:49:59;7.8;5.8;5.2
74428;PMS5003;62860;52.134;23.714;2022-12-07T22:54:59;9.8;5.6;4.2
74428;PMS5003;62860;52.134;23.714;2022-12-07T22:59:35;7.8;5.2;3.8
74428;PMS5003;62860;52.134;23.714;2022-12-07T23:04:23;7.8;6.4;5.4
74428;PMS5003;62860;52.134;23.714;2022-12-07T23:09:17;8;6.8;4.8
74428;PMS5003;62860;52.134;23.714;2022-12-07T23:14:57;5.2;5.2;4
74428;PMS5003;62860;52.134;23.714;2022-12-07T23:19:33;6;4.8;4
74428;PMS5003;62860;52.134;23.714;2022-12-07T23:24:45;8.8;6.8;5
74428;PMS5003;62860;52.134;23.714;2022-12-07T23:29:23;6.2;4.6;3.2
74428;PMS5003;62860;52.134;23.714;2022-12-07T23:34:59;8.5;5.3;3.3
74428;PMS5003;62860;52.134;23.714;2022-12-07T23:39:33;6.4;5.4;3.6
74428;PMS5003;62860;52.134;23.714;2022-12-07T23:44:47;5.8;4.2;3.4
74428;PMS5003;62860;52.134;23.714;2022-12-07T23:49:43;4.2;3.8;2.4
74428;PMS5003;62860;52.134;23.714;2022-12-07T23:54:17;7.6;3.6;3.4
74428;PMS5003;62860;52.134;23.714;2022-12-07T23:59:57;5.4;3.6;2.6
